Home PIREPS Pireps

Flight SAB0001

  • Submitted By: Carl Hermans
  • Departure Airport: Bruxelles National (EBBR)
  • Arrival Airport: Paris - Charles-de-Gaulle (LFPG)
  • Aircraft: A319-112 (OO-SSG)
  • Flight Time: 00.54
  • Date Submitted: 17/06/2015
  • Route: CMB
  • Status: Accepted
Flight Details
Gross Revenue:
(113 load / € 1.00 per unit
€ 113.00
Fuel Cost:
(2441 fuel used @ 5.1 / unit)
€ 12,449.10

Additional Log Information:

View Log

Aircraft Used in flight is iFly 737-700 OO-JAN (Wide screen)
15:23 Brakes are On
15:24 Brakes are Released
15:29 You Took off @ 165 Knots and Flaps at Position 3
Departure Weather
EBBR 171250Z 24010KT 190V270 CAVOK 22/09 Q1023 NOSIGrn
15:29 Landing Gear Up @ 183 Knots and 340 Feet
15:32 Above FL100 you need to switch of the landing lights
15:33 Below 10000 feet you are not allowed to go over 250 knots
15:56 Landing Gear Down @ 173 Knots and 7620 Feet
15:59 You exceeded maximum bank angle
16:09 You Landed @ 112 Knots and with -400 Vertical Speed
Arrival Weather
LFPG 171330Z 27007KT 220V320 CAVOK 24/11 Q1024 NOSIGrn
16:13 Brakes are On
16:14 Brussels Bel-Track1.0.0.9

Route Map

Corporate About Us Our Team Vacancies Information Fleet Route Network Rules and Regulations Operations Flight Schedules Event Center Tours Partners IVAO Vatsim Acars dev FSCB

fb Users Online Belgium Michael Bitu,
2 Pilot(s) and 118 Guest(s) Online
CMS by phpVMS - Design by Crazycreatives.com - Copyright © 2018 - Brussels Airlines Virtual